Aviation Digital Data Service (ADDS)

Output produced by METARs form (1048 UTC 17 June 2019)
found at http://www.aviationweather.gov/metar/data/
 
Forecast for: AGGR (RENNELL TINGOA , SB)
Text: TAF AGGR 162320Z 1700/1724 14017KT 9999 SCT018 Q 1012 1010 1009 1011
Forecast period: 0000 UTC 17 June 2019 to 0000 UTC 18 June 2019
Forecast type: FROM: standard forecast or significant change
Winds: from the SE (140 degrees) at 20 MPH (17 knots; 8.7 m/s)
Visibility: 6 or more miles 10+ km)
Ceiling: at least 12,000 feet AGL
Clouds: scattered clouds at 1800 feet AGL
Weather: no significant weather forecast for this period